Time;durP1;ratioP1;P1;durP2;ratioP2;P2;SDS_P1;SDS_P2;PMS_P1;PMS_P2;Temp;Humidity;BMP_temperature;BMP_pressure;BME280_temperature;BME280_humidity;BME280_pressure;Samples;Min_cycle;Max_cycle;Signal;HPM_P1;HPM_P2
2023/02/13 00:01:18;;;;;;;123.20;60.40;;;;;;;0.10;74.07;99134.07;105293;1253;101855;-77
2023/02/13 00:03:46;;;;;;;109.90;54.60;;;;;;;0.10;74.17;99130.56;105259;1254;100366;-75
2023/02/13 00:06:14;;;;;;;116.00;57.20;;;;;;;0.11;74.08;99133.33;105355;1265;96613;-74
2023/02/13 00:08:43;;;;;;;118.30;57.80;;;;;;;0.12;74.10;99127.89;105271;1254;97009;-74
2023/02/13 00:11:11;;;;;;;107.60;55.40;;;;;;;0.13;74.19;99123.60;104952;1251;102159;-77
2023/02/13 00:13:40;;;;;;;108.80;53.50;;;;;;;0.14;74.11;99121.44;104985;1260;101488;-74
2023/02/13 00:16:08;;;;;;;114.70;58.80;;;;;;;0.15;74.27;99123.98;105222;1263;100752;-75
2023/02/13 00:18:38;;;;;;;123.80;62.60;;;;;;;0.17;74.22;99128.31;105329;1254;97186;-76
2023/02/13 00:21:09;;;;;;;119.60;60.80;;;;;;;0.17;74.34;99122.64;105338;1266;97031;-75
2023/02/13 00:23:39;;;;;;;86.60;45.50;;;;;;;0.17;74.37;99119.94;105344;1251;102635;-74
2023/02/13 00:26:10;;;;;;;115.50;58.00;;;;;;;0.19;74.48;99119.67;105485;1254;101761;-74
2023/02/13 00:28:39;;;;;;;116.40;58.00;;;;;;;0.20;74.42;99125.41;105284;1254;100609;-75
2023/02/13 00:31:10;;;;;;;106.40;56.50;;;;;;;0.22;74.47;99119.30;105347;1254;97492;-74
2023/02/13 00:33:39;;;;;;;116.00;58.20;;;;;;;0.22;74.47;99115.00;105131;1260;97217;-74
2023/02/13 00:36:13;;;;;;;97.60;54.50;;;;;;;0.23;74.55;99113.38;105362;1254;102934;-77
2023/02/13 00:38:43;;;;;;;99.50;51.90;;;;;;;0.22;74.61;99116.64;105243;1254;101844;-73
2023/02/13 00:41:13;;;;;;;104.10;52.30;;;;;;;0.20;74.52;99115.52;105117;1254;106296;-76
2023/02/13 00:43:41;;;;;;;101.20;51.70;;;;;;;0.20;74.59;99119.55;108654;1251;95045;-74
2023/02/13 00:46:10;;;;;;;102.30;52.20;;;;;;;0.22;74.76;99118.20;108997;1250;94415;-74
2023/02/13 00:48:38;;;;;;;92.30;50.40;;;;;;;0.25;74.81;99119.59;108958;1251;102137;-75
2023/02/13 00:51:08;;;;;;;107.80;53.60;;;;;;;0.26;74.90;99124.46;109027;1250;100489;-75
2023/02/13 00:53:37;;;;;;;101.00;52.80;;;;;;;0.27;74.90;99115.52;108963;1250;99717;-75
2023/02/13 00:56:07;;;;;;;89.70;48.70;;;;;;;0.30;74.88;99105.27;108662;1251;94993;-78
2023/02/13 00:58:35;;;;;;;85.90;45.20;;;;;;;0.31;74.82;99098.48;108941;1249;94557;-76
2023/02/13 01:01:03;;;;;;;87.30;45.80;;;;;;;0.32;74.73;99100.13;109039;1249;102117;-77
2023/02/13 01:03:31;;;;;;;91.90;47.90;;;;;;;0.35;74.74;99099.94;108794;1251;100307;-77
2023/02/13 01:06:00;;;;;;;90.60;46.30;;;;;;;0.39;74.80;99099.87;108940;1250;99530;-75
2023/02/13 01:08:28;;;;;;;88.40;46.70;;;;;;;0.39;74.87;99092.77;108990;1251;95180;-75
2023/02/13 01:10:57;;;;;;;92.00;46.50;;;;;;;0.40;74.87;99088.84;108664;1251;94613;-74
2023/02/13 01:13:26;;;;;;;97.00;47.40;;;;;;;0.41;74.96;99089.27;108982;1249;102405;-74
2023/02/13 01:15:54;;;;;;;102.30;52.90;;;;;;;0.43;74.89;99091.61;109020;1249;101301;-77
2023/02/13 01:18:23;;;;;;;108.50;52.30;;;;;;;0.45;74.93;99085.44;108977;1250;99954;-75
2023/02/13 01:21:06;;;;;;;90.60;47.60;;;;;;;0.47;74.92;99079.67;108995;1250;94206;-75
2023/02/13 01:23:37;;;;;;;91.60;46.10;;;;;;;0.49;74.98;99076.15;108995;1250;94659;-77
2023/02/13 01:26:07;;;;;;;88.10;44.80;;;;;;;0.52;75.04;99068.11;109063;1250;102318;-75
2023/02/13 01:28:35;;;;;;;85.60;45.10;;;;;;;0.52;74.98;99062.06;109007;1250;101310;-77
2023/02/13 01:31:03;;;;;;;80.80;42.10;;;;;;;0.53;75.16;99055.80;108960;1249;99866;-77
2023/02/13 01:33:33;;;;;;;83.90;42.50;;;;;;;0.53;75.08;99054.59;109018;1250;94482;-76
2023/02/13 01:36:06;;;;;;;78.40;42.00;;;;;;;0.53;75.06;99053.02;109026;1250;94452;-75
2023/02/13 01:38:34;;;;;;;80.20;39.90;;;;;;;0.54;75.13;99050.09;108735;1251;101918;-78
2023/02/13 01:41:03;;;;;;;76.90;39.70;;;;;;;0.55;75.17;99049.83;109051;1251;101492;-77
2023/02/13 01:44:25;;;;;;;76.10;41.00;;;;;;;0.55;75.28;99042.94;108637;1251;99905;-75
2023/02/13 01:46:53;;;;;;;73.70;38.60;;;;;;;0.55;75.26;99037.24;108191;1259;94460;-75
2023/02/13 01:49:25;;;;;;;74.70;38.30;;;;;;;0.56;75.24;99034.71;108209;1259;94751;-74
2023/02/13 01:51:56;;;;;;;66.40;36.00;;;;;;;0.58;75.25;99034.08;108118;1259;101163;-74
2023/02/13 01:54:29;;;;;;;65.30;34.70;;;;;;;0.59;75.33;99036.27;108223;1259;101072;-75
2023/02/13 01:57:20;;;;;;;66.90;35.40;;;;;;;0.60;75.45;99037.12;108227;1258;99726;-78
2023/02/13 01:59:57;;;;;;;68.70;34.50;;;;;;;0.56;75.45;99034.16;108241;1259;94604;-74
2023/02/13 02:02:26;;;;;;;65.00;35.40;;;;;;;0.58;75.50;99034.03;108071;1258;94781;-78
2023/02/13 02:04:55;;;;;;;64.70;33.20;;;;;;;0.59;75.57;99036.61;108239;1259;102396;-76
2023/02/13 02:07:27;;;;;;;66.80;34.20;;;;;;;0.58;75.54;99032.25;108220;1259;101229;-75
2023/02/13 02:10:00;;;;;;;68.90;34.10;;;;;;;0.59;75.54;99030.10;108196;1259;99914;-75
2023/02/13 02:12:34;;;;;;;70.20;34.20;;;;;;;0.60;75.57;99025.37;108190;1259;94287;-75
2023/02/13 02:15:05;;;;;;;66.70;32.20;;;;;;;0.62;75.58;99030.17;108216;1259;94460;-75
2023/02/13 02:17:34;;;;;;;65.50;33.00;;;;;;;0.64;75.55;99026.84;107964;1264;102684;-75
2023/02/13 02:20:35;;;;;;;64.20;32.60;;;;;;;0.67;75.57;99026.08;108099;1256;100571;-74
2023/02/13 02:23:09;;;;;;;61.70;31.50;;;;;;;0.66;75.61;99016.44;108464;1256;99900;-77
2023/02/13 02:26:11;;;;;;;57.70;31.40;;;;;;;0.63;75.66;99012.38;108472;1256;94223;-75
2023/02/13 02:29:00;;;;;;;59.70;31.00;;;;;;;0.64;75.79;99014.45;108457;1256;94341;-77
2023/02/13 02:32:02;;;;;;;52.80;29.10;;;;;;;0.62;75.76;99009.43;108471;1256;102315;-77
2023/02/13 02:34:48;;;;;;;57.00;28.30;;;;;;;0.63;75.80;99009.54;108453;1256;101392;-75
2023/02/13 02:37:25;;;;;;;51.90;27.90;;;;;;;0.63;75.90;99012.89;108443;1256;100311;-75
2023/02/13 02:40:15;;;;;;;57.40;29.40;;;;;;;0.63;75.85;99011.34;108446;1256;94639;-77
2023/02/13 02:42:49;;;;;;;55.30;28.40;;;;;;;0.65;75.98;99010.51;108528;1256;94640;-75
2023/02/13 02:45:26;;;;;;;51.90;27.60;;;;;;;0.65;75.98;99012.09;108273;1256;102288;-75
2023/02/13 02:50:45;;;;;;;52.90;26.80;;;;;;;0.60;76.08;99012.95;108427;1256;100016;-75
2023/02/13 02:53:37;;;;;;;55.20;27.40;;;;;;;0.61;76.10;99011.29;108428;1256;94251;-75
2023/02/13 02:56:25;;;;;;;51.00;26.20;;;;;;;0.65;76.09;99008.75;108437;1256;94413;-76
2023/02/13 03:07:24;;;;;;;47.20;24.90;;;;;;;0.71;76.17;99011.83;108421;1256;94834;-75
2023/02/13 03:22:17;;;;;;;39.90;23.20;;;;;;;0.75;76.14;99017.22;108475;1256;101359;-75
2023/02/13 03:24:14;;;;;;;45.80;24.10;;;;;;;0.78;76.13;99018.63;108229;1259;95153;-74
2023/02/13 03:26:50;;;;;;;46.20;22.50;;;;;;;0.80;76.13;99020.06;108180;1259;102277;-77
2023/02/13 03:32:35;;;;;;;42.50;23.10;;;;;;;0.86;76.00;99022.04;108422;1255;98708;-75
2023/02/13 03:39:01;;;;;;;38.90;21.40;;;;;;;0.91;76.01;99026.15;108498;1256;94334;-75
2023/02/13 03:41:36;;;;;;;41.60;22.70;;;;;;;0.88;75.94;99027.05;107984;1263;101195;-75
2023/02/13 03:44:18;;;;;;;45.00;23.40;;;;;;;0.89;75.95;99030.36;107980;1263;110248;-75
2023/02/13 03:46:49;;;;;;;38.80;21.60;;;;;;;0.89;75.96;99024.14;107959;1263;99885;-75
2023/02/13 03:52:41;;;;;;;44.80;22.40;;;;;;;0.92;75.98;99022.17;107808;1267;94879;-74
2023/02/13 04:00:55;;;;;;;44.70;21.40;;;;;;;0.96;75.79;99020.58;107978;1263;100395;-76
2023/02/13 04:03:29;;;;;;;35.20;18.00;;;;;;;0.98;75.71;99021.14;107972;1263;95748;-75
2023/02/13 04:06:14;;;;;;;34.10;19.50;;;;;;;1.01;75.60;99018.86;107849;1263;95078;-78
2023/02/13 04:08:43;;;;;;;42.00;21.10;;;;;;;1.06;75.48;99025.57;107846;1263;101937;-75
2023/02/13 04:11:20;;;;;;;39.00;19.70;;;;;;;1.11;75.51;99021.69;108012;1263;101347;-75
2023/02/13 04:13:59;;;;;;;38.80;18.40;;;;;;;1.13;75.53;99017.62;107974;1263;98708;-74
2023/02/13 04:16:48;;;;;;;36.20;18.60;;;;;;;1.15;75.36;99002.55;107984;1263;94665;-75
2023/02/13 04:19:17;;;;;;;37.40;19.00;;;;;;;1.18;75.29;98998.67;108533;1256;94811;-75
2023/02/13 04:21:45;;;;;;;32.50;17.70;;;;;;;1.21;75.27;98999.15;108574;1258;102096;-75
2023/02/13 04:24:13;;;;;;;37.70;19.10;;;;;;;1.20;75.25;98995.63;108836;1251;101355;-76
2023/02/13 04:26:43;;;;;;;35.20;18.60;;;;;;;1.22;75.13;98997.64;108844;1251;99678;-75
2023/02/13 04:29:12;;;;;;;33.70;18.20;;;;;;;1.24;75.15;98995.70;108549;1251;94369;-75
2023/02/13 04:31:40;;;;;;;37.70;19.20;;;;;;;1.27;75.20;98997.62;108897;1251;94237;-74
2023/02/13 04:34:08;;;;;;;36.20;18.00;;;;;;;1.29;75.10;98998.89;108879;1250;102095;-75
2023/02/13 04:36:36;;;;;;;32.40;18.30;;;;;;;1.29;75.17;99000.59;108953;1251;100281;-75
2023/02/13 04:39:04;;;;;;;37.10;19.30;;;;;;;1.26;75.03;98998.55;108866;1251;99878;-77
2023/02/13 04:41:33;;;;;;;37.70;19.20;;;;;;;1.22;74.95;98999.52;108744;1251;94614;-75
2023/02/13 04:44:01;;;;;;;36.40;18.80;;;;;;;1.24;75.02;99006.16;108920;1251;95045;-77
2023/02/13 04:46:29;;;;;;;36.00;18.90;;;;;;;1.26;75.02;99004.22;108892;1251;102244;-77
2023/02/13 04:48:57;;;;;;;34.50;19.30;;;;;;;1.28;74.93;99005.88;108863;1251;101525;-75
2023/02/13 04:51:25;;;;;;;33.50;17.40;;;;;;;1.29;74.93;99006.68;108862;1251;99946;-76
2023/02/13 04:53:53;;;;;;;34.00;18.70;;;;;;;1.30;74.97;99006.23;108881;1251;94458;-75
2023/02/13 04:56:22;;;;;;;35.70;19.00;;;;;;;1.32;74.94;99010.14;108642;1251;94930;-75
2023/02/13 04:58:50;;;;;;;37.80;18.70;;;;;;;1.34;74.85;99013.91;108896;1250;102109;-75
2023/02/13 05:01:18;;;;;;;34.30;17.90;;;;;;;1.35;74.78;99009.19;108845;1251;101004;-77
2023/02/13 05:03:46;;;;;;;34.70;19.20;;;;;;;1.36;74.72;99007.69;108795;1251;98978;-75
2023/02/13 05:06:14;;;;;;;35.80;19.20;;;;;;;1.38;74.74;99009.20;108856;1251;94221;-75
2023/02/13 05:08:43;;;;;;;37.00;20.00;;;;;;;1.38;74.81;99007.19;108688;1251;94953;-76
2023/02/13 05:11:11;;;;;;;38.80;19.40;;;;;;;1.40;74.74;99003.55;108867;1250;102090;-77
2023/02/13 05:13:39;;;;;;;35.10;19.70;;;;;;;1.39;74.67;99004.45;108610;1251;102410;-76
2023/02/13 05:16:07;;;;;;;38.10;19.10;;;;;;;1.40;74.60;99002.48;108818;1251;99625;-74
2023/02/13 05:18:35;;;;;;;38.50;20.90;;;;;;;1.40;74.63;99004.21;108836;1250;94502;-75
2023/02/13 05:23:49;;;;;;;35.30;19.20;;;;;;;1.43;74.60;99007.54;108926;1251;100971;-75
2023/02/13 05:26:17;;;;;;;40.90;21.20;;;;;;;1.42;74.65;99010.08;108912;1251;101600;-75
2023/02/13 05:31:31;;;;;;;39.40;21.00;;;;;;;1.40;74.81;99012.36;108870;1251;94260;-74
2023/02/13 05:34:00;;;;;;;43.90;21.80;;;;;;;1.40;74.74;99012.06;108635;1251;94678;-75
2023/02/13 05:36:28;;;;;;;49.00;25.10;;;;;;;1.39;74.89;99014.05;108886;1251;102212;-74
2023/02/13 05:38:56;;;;;;;45.30;25.70;;;;;;;1.41;74.91;99015.73;108870;1251;101379;-77
2023/02/13 05:41:24;;;;;;;47.50;25.40;;;;;;;1.41;75.02;99016.43;108840;1251;100582;-76
2023/02/13 05:43:52;;;;;;;49.30;24.30;;;;;;;1.38;75.02;99013.45;108900;1251;94651;-75
2023/02/13 05:46:21;;;;;;;47.10;26.00;;;;;;;1.38;75.12;99020.14;108857;1251;94416;-75
2023/02/13 05:48:51;;;;;;;56.70;27.90;;;;;;;1.39;75.06;99020.63;108878;1251;102492;-75
2023/02/13 05:51:20;;;;;;;51.30;28.10;;;;;;;1.38;75.16;99020.18;108917;1250;110054;-75
2023/02/13 05:53:48;;;;;;;50.80;28.60;;;;;;;1.38;75.21;99020.52;108855;1250;100182;-74
2023/02/13 05:56:16;;;;;;;52.50;28.80;;;;;;;1.35;75.19;99017.70;108708;1252;94231;-75
2023/02/13 05:58:45;;;;;;;47.40;28.50;;;;;;;1.35;75.23;99015.25;108849;1251;95020;-74
2023/02/13 06:01:13;;;;;;;51.90;28.70;;;;;;;1.35;75.37;99011.85;108803;1251;103040;-77
2023/02/13 06:03:41;;;;;;;51.60;30.10;;;;;;;1.36;75.45;99012.50;108840;1251;101266;-74
2023/02/13 06:06:09;;;;;;;52.70;29.40;;;;;;;1.34;75.42;99015.64;108732;1252;100029;-75
2023/02/13 06:08:38;;;;;;;51.40;27.20;;;;;;;1.35;75.54;99017.04;108818;1251;95204;-74
2023/02/13 06:11:06;;;;;;;49.80;27.40;;;;;;;1.34;75.53;99022.05;108988;1250;94538;-74
2023/02/13 06:13:35;;;;;;;64.10;35.10;;;;;;;1.32;75.58;99022.23;108965;1250;101783;-77
2023/02/13 06:16:03;;;;;;;68.80;39.90;;;;;;;1.32;75.74;99024.58;108987;1250;101594;-73
2023/02/13 06:18:31;;;;;;;72.20;40.00;;;;;;;1.34;75.73;99025.27;108975;1249;100273;-74
2023/02/13 06:20:59;;;;;;;70.80;40.40;;;;;;;1.37;75.75;99025.59;109016;1249;94164;-74
2023/02/13 06:23:27;;;;;;;79.90;43.90;;;;;;;1.35;75.88;99027.13;108822;1249;94743;-76
2023/02/13 06:25:56;;;;;;;90.50;45.80;;;;;;;1.34;76.01;99027.05;108643;1254;102249;-74
2023/02/13 06:28:24;;;;;;;126.00;61.00;;;;;;;1.35;76.05;99026.09;108362;1254;101092;-75
2023/02/13 06:30:52;;;;;;;155.20;67.10;;;;;;;1.38;75.97;99026.89;108636;1254;99630;-75
2023/02/13 06:33:20;;;;;;;144.10;63.20;;;;;;;1.41;76.09;99028.60;108564;1254;94331;-75
2023/02/13 06:35:48;;;;;;;136.70;60.20;;;;;;;1.44;76.12;99028.06;108649;1254;94736;-74
2023/02/13 06:38:17;;;;;;;127.20;55.80;;;;;;;1.45;76.13;99029.58;108325;1256;100918;-74
2023/02/13 06:40:47;;;;;;;121.80;56.00;;;;;;;1.47;76.28;99030.14;108581;1254;101515;-74
2023/02/13 06:43:16;;;;;;;120.20;55.70;;;;;;;1.49;76.37;99029.95;108648;1254;99889;-74
2023/02/13 06:45:45;;;;;;;120.40;54.50;;;;;;;1.51;76.44;99029.29;108640;1254;94308;-74
2023/02/13 06:48:14;;;;;;;107.00;50.70;;;;;;;1.53;76.56;99031.14;108618;1257;94565;-75
2023/02/13 06:50:42;;;;;;;104.60;47.20;;;;;;;1.55;76.50;99031.52;108680;1253;102404;-74
2023/02/13 06:53:10;;;;;;;95.10;45.50;;;;;;;1.58;76.50;99034.64;108688;1254;101065;-74
2023/02/13 06:55:38;;;;;;;77.60;38.30;;;;;;;1.59;76.61;99034.51;108598;1254;99737;-74
2023/02/13 06:58:07;;;;;;;75.10;37.70;;;;;;;1.62;76.65;99034.64;108558;1254;94287;-76
2023/02/13 07:00:36;;;;;;;78.20;40.30;;;;;;;1.64;76.70;99031.13;108354;1254;94694;-74
2023/02/13 07:03:06;;;;;;;90.70;46.30;;;;;;;1.67;76.73;99033.25;108672;1254;102203;-77
2023/02/13 07:05:34;;;;;;;101.90;48.20;;;;;;;1.70;76.90;99036.68;108372;1253;101373;-75
2023/02/13 07:08:02;;;;;;;83.20;42.00;;;;;;;1.72;76.89;99033.15;108693;1253;99862;-74
2023/02/13 07:10:30;;;;;;;94.10;44.00;;;;;;;1.74;76.96;99035.85;108776;1252;94462;-75
2023/02/13 07:12:58;;;;;;;83.90;43.00;;;;;;;1.79;77.07;99031.23;108719;1253;95173;-74
2023/02/13 07:15:27;;;;;;;82.70;40.80;;;;;;;1.82;76.96;99031.17;108405;1252;101272;-74
2023/02/13 07:17:59;;;;;;;72.10;36.70;;;;;;;1.84;77.03;99034.94;108458;1254;101312;-75
2023/02/13 07:20:28;;;;;;;69.90;36.00;;;;;;;1.85;77.05;99036.50;108673;1253;99883;-75
2023/02/13 07:23:03;;;;;;;68.70;37.00;;;;;;;1.86;77.08;99037.81;108741;1254;94309;-76
2023/02/13 07:25:32;;;;;;;59.20;31.30;;;;;;;1.89;77.31;99038.85;108748;1253;94306;-74
2023/02/13 07:28:06;;;;;;;53.10;29.70;;;;;;;1.92;77.16;99041.45;108412;1253;102343;-75
2023/02/13 07:30:35;;;;;;;50.00;26.90;;;;;;;1.96;77.14;99039.85;109003;1250;101251;-74
2023/02/13 07:33:05;;;;;;;47.20;26.10;;;;;;;2.01;77.17;99044.09;108704;1250;99949;-74
2023/02/13 07:35:35;;;;;;;50.70;26.90;;;;;;;2.05;77.14;99046.52;108967;1251;94411;-74
2023/02/13 07:38:04;;;;;;;43.20;25.40;;;;;;;2.07;77.17;99047.40;108935;1251;94419;-74
2023/02/13 07:40:32;;;;;;;43.10;23.90;;;;;;;2.09;77.14;99051.48;108982;1251;102332;-76
2023/02/13 07:43:01;;;;;;;46.30;23.90;;;;;;;2.12;77.18;99052.52;109007;1249;101171;-74
2023/02/13 07:45:30;;;;;;;47.20;23.70;;;;;;;2.13;77.36;99057.40;108939;1251;99213;-74
2023/02/13 07:47:59;;;;;;;44.70;24.20;;;;;;;2.14;77.25;99059.23;108967;1250;94460;-76
2023/02/13 07:50:28;;;;;;;42.50;22.00;;;;;;;2.16;77.31;99059.14;108956;1249;94562;-73
2023/02/13 07:52:59;;;;;;;45.40;26.90;;;;;;;2.17;77.48;99060.04;108717;1250;102376;-75
2023/02/13 07:55:28;;;;;;;60.40;32.90;;;;;;;2.22;77.57;99057.60;108931;1250;101216;-76
2023/02/13 07:57:57;;;;;;;61.90;36.30;;;;;;;2.25;77.46;99059.11;108482;1251;217780;-73
2023/02/13 08:00:25;;;;;;;54.50;32.00;;;;;;;2.29;77.56;99057.23;108794;1251;95589;-76
2023/02/13 08:02:53;;;;;;;53.80;30.70;;;;;;;2.33;77.68;99056.02;108918;1250;94564;-74
2023/02/13 08:05:21;;;;;;;47.10;28.50;;;;;;;2.37;77.67;99054.96;108969;1250;102238;-75
2023/02/13 08:07:49;;;;;;;56.10;29.20;;;;;;;2.40;77.78;99054.05;109141;1249;101348;-74
2023/02/13 08:13:04;;;;;;;46.90;27.40;;;;;;;2.44;77.91;99049.02;108895;1249;94223;-74
2023/02/13 08:15:33;;;;;;;46.40;25.90;;;;;;;2.48;77.78;99044.85;108629;1251;94644;-74
2023/02/13 08:18:01;;;;;;;48.50;30.40;;;;;;;2.51;77.70;99044.46;108975;1250;102643;-74
2023/02/13 08:20:30;;;;;;;47.80;30.60;;;;;;;2.50;77.70;99045.79;109007;1250;102130;-73
2023/02/13 08:23:10;;;;;;;44.50;25.80;;;;;;;2.47;77.82;99049.54;108949;1251;100125;-74
2023/02/13 08:25:39;;;;;;;40.80;22.50;;;;;;;2.50;77.74;99045.27;108918;1251;94257;-74
2023/02/13 08:28:08;;;;;;;42.30;23.10;;;;;;;2.53;77.89;99042.12;108718;1250;94692;-74
2023/02/13 08:30:37;;;;;;;44.40;23.60;;;;;;;2.58;78.03;99038.95;109016;1250;102915;-76
2023/02/13 08:33:05;;;;;;;39.20;23.80;;;;;;;2.63;78.01;99037.49;109014;1250;101068;-74
2023/02/13 08:35:33;;;;;;;44.40;25.40;;;;;;;2.68;78.14;99029.78;108998;1251;99731;-73
2023/02/13 08:38:05;;;;;;;54.30;32.30;;;;;;;2.73;78.03;99027.27;109003;1250;94160;-75
2023/02/13 08:40:33;;;;;;;89.20;56.70;;;;;;;2.79;78.11;99026.90;108978;1249;94288;-76
2023/02/13 08:43:05;;;;;;;77.20;45.70;;;;;;;2.85;78.03;99022.83;108993;1253;102122;-74
2023/02/13 08:45:34;;;;;;;52.10;32.40;;;;;;;2.92;78.02;99021.95;108961;1249;101315;-74
2023/02/13 08:48:03;;;;;;;49.90;31.20;;;;;;;2.96;78.10;99022.50;108656;1251;99958;-75
2023/02/13 08:50:31;;;;;;;45.20;27.80;;;;;;;3.01;78.10;99020.73;108947;1249;94198;-73
2023/02/13 08:53:00;;;;;;;39.10;23.40;;;;;;;3.05;78.11;99019.27;108615;1250;95250;-74
2023/02/13 08:55:28;;;;;;;33.70;20.60;;;;;;;3.12;78.09;99025.13;108934;1251;101676;-76
2023/02/13 08:58:00;;;;;;;31.80;18.50;;;;;;;3.19;78.08;99027.85;108933;1251;101529;-74
2023/02/13 09:00:28;;;;;;;29.90;17.80;;;;;;;3.30;78.11;99033.77;108619;1251;99188;-74
2023/02/13 09:03:02;;;;;;;29.60;17.40;;;;;;;3.37;78.09;99031.41;108971;1249;94593;-74
2023/02/13 09:05:31;;;;;;;37.40;19.20;;;;;;;3.43;78.04;99032.34;108949;1250;94476;-74
2023/02/13 09:08:02;;;;;;;30.80;18.40;;;;;;;3.50;77.94;99027.79;108949;1251;102402;-74
2023/02/13 09:10:34;;;;;;;27.30;18.00;;;;;;;3.59;77.85;99029.22;108946;1249;101481;-74
2023/02/13 09:13:02;;;;;;;32.00;19.40;;;;;;;3.66;77.81;99030.59;108824;1249;99884;-75
2023/02/13 09:15:31;;;;;;;31.80;19.10;;;;;;;3.71;77.85;99031.76;108912;1250;94413;-74
2023/02/13 09:18:00;;;;;;;32.00;19.30;;;;;;;3.77;77.73;99030.88;108968;1250;94538;-74
2023/02/13 09:20:28;;;;;;;33.70;20.60;;;;;;;3.83;77.61;99036.21;108968;1250;102267;-74
2023/02/13 09:22:56;;;;;;;35.70;20.00;;;;;;;3.89;77.62;99034.63;108967;1250;101422;-75
2023/02/13 09:25:25;;;;;;;40.30;21.40;;;;;;;3.95;77.66;99035.93;108875;1251;100161;-76
2023/02/13 09:27:53;;;;;;;47.60;25.40;;;;;;;4.00;77.46;99033.39;108752;1249;94460;-76
2023/02/13 09:30:25;;;;;;;48.10;25.80;;;;;;;4.06;77.38;99022.60;108866;1251;95096;-74
2023/02/13 09:32:54;;;;;;;66.50;33.00;;;;;;;4.12;77.45;99018.84;108857;1251;102256;-74
2023/02/13 09:35:23;;;;;;;41.20;23.90;;;;;;;4.19;77.43;99014.80;108517;1250;101494;-75
2023/02/13 09:37:51;;;;;;;44.90;24.50;;;;;;;4.28;77.50;99016.86;108806;1251;99785;-74
2023/02/13 09:40:35;;;;;;;40.60;23.30;;;;;;;4.37;77.32;99017.48;108929;1252;94431;-75
2023/02/13 09:43:31;;;;;;;50.30;25.60;;;;;;;4.41;76.88;99013.27;108921;1251;94634;-74
2023/02/13 09:46:05;;;;;;;51.30;28.40;;;;;;;4.53;76.81;99016.13;108626;1250;102200;-74
2023/02/13 09:48:37;;;;;;;46.20;27.30;;;;;;;4.64;76.82;99016.21;108961;1249;101328;-75
2023/02/13 09:51:05;;;;;;;;;;;;;;;4.75;76.75;99018.08;108969;1250;100057;-74
2023/02/13 09:53:35;;;;;;;32.80;19.60;;;;;;;4.83;76.23;99015.25;108717;1251;94295;-74
2023/02/13 09:56:09;;;;;;;34.00;20.80;;;;;;;4.89;76.10;99011.50;108653;1250;94616;-74
2023/02/13 09:58:58;;;;;;;41.30;21.30;;;;;;;4.97;75.83;99010.45;108943;1250;102056;-74
2023/02/13 10:01:31;;;;;;;37.20;21.10;;;;;;;5.07;75.73;99012.39;108614;1251;101372;-76
2023/02/13 10:04:02;;;;;;;47.80;22.70;;;;;;;5.14;75.46;99011.51;108829;1251;98346;-74
2023/02/13 10:06:48;;;;;;;41.10;22.90;;;;;;;5.21;75.32;99008.77;108949;1250;94193;-74
2023/02/13 10:09:47;;;;;;;40.00;21.40;;;;;;;5.24;75.08;99006.89;108846;1251;94490;-74
2023/02/13 10:12:53;;;;;;;31.40;19.20;;;;;;;5.28;75.06;99003.84;108832;1251;102212;-76
2023/02/13 10:15:36;;;;;;;28.90;18.10;;;;;;;5.34;74.93;98999.66;108719;1252;101366;-74
2023/02/13 10:18:11;;;;;;;30.20;18.40;;;;;;;5.40;74.71;99004.00;108760;1251;99872;-76
2023/02/13 10:20:47;;;;;;;30.20;19.30;;;;;;;5.46;74.71;99005.73;108595;1251;94231;-74
2023/02/13 10:23:23;;;;;;;29.40;17.10;;;;;;;5.52;74.49;99005.09;108899;1251;95704;-76
2023/02/13 10:25:55;;;;;;;29.20;16.50;;;;;;;5.52;74.30;99001.55;108862;1251;101467;-76
2023/02/13 10:28:43;;;;;;;24.00;15.60;;;;;;;5.51;74.16;99001.45;108840;1251;101380;-74
2023/02/13 10:31:17;;;;;;;24.70;15.00;;;;;;;5.48;74.05;98996.91;108866;1251;100039;-73
2023/02/13 10:33:53;;;;;;;24.70;15.40;;;;;;;5.48;74.17;98991.47;108517;1251;94409;-74
2023/02/13 10:36:31;;;;;;;29.50;15.80;;;;;;;5.49;73.99;98989.21;108894;1251;94517;-73
2023/02/13 10:39:30;;;;;;;26.30;14.60;;;;;;;5.53;74.05;98981.39;108877;1250;102300;-75
2023/02/13 10:42:13;;;;;;;25.00;15.50;;;;;;;5.55;73.92;98972.64;108825;1251;101253;-74
2023/02/13 10:45:02;;;;;;;25.40;14.60;;;;;;;5.57;73.84;98967.40;108831;1251;99117;-73
2023/02/13 10:48:03;;;;;;;24.00;15.20;;;;;;;5.62;73.79;98965.58;108818;1251;94451;-74
2023/02/13 10:50:44;;;;;;;21.40;13.70;;;;;;;5.65;73.55;98959.73;108552;1251;94592;-75
2023/02/13 10:53:23;;;;;;;19.20;13.20;;;;;;;5.70;73.75;98954.40;108892;1251;102196;-75
2023/02/13 10:56:16;;;;;;;22.40;12.50;;;;;;;5.86;73.76;98956.13;108872;1251;101318;-74
2023/02/13 10:58:53;;;;;;;20.20;12.80;;;;;;;6.02;73.44;98954.80;108817;1251;99593;-73
2023/02/13 11:01:41;;;;;;;25.10;14.40;;;;;;;6.12;73.26;98952.06;108844;1251;94252;-77
2023/02/13 11:04:17;;;;;;;17.00;11.40;;;;;;;6.21;73.02;98946.08;108860;1251;94461;-74
2023/02/13 11:06:57;;;;;;;17.40;10.40;;;;;;;6.25;72.86;98945.11;108550;1251;102264;-74
2023/02/13 11:09:27;;;;;;;18.70;11.80;;;;;;;6.30;72.69;98946.23;108838;1251;101069;-77
2023/02/13 11:11:55;;;;;;;26.30;13.90;;;;;;;6.30;72.29;98946.21;108871;1253;99688;-76
2023/02/13 11:14:27;;;;;;;18.00;10.70;;;;;;;6.27;72.29;98944.71;108861;1251;94509;-76
2023/02/13 11:17:15;;;;;;;47.10;19.50;;;;;;;6.31;72.27;98936.14;108823;1251;95041;-74
2023/02/13 11:19:51;;;;;;;41.60;17.00;;;;;;;6.42;72.22;98935.97;108915;1251;102359;-74
2023/02/13 11:22:31;;;;;;;21.60;12.10;;;;;;;6.47;71.89;98931.74;108859;1251;100160;-77
2023/02/13 11:25:13;;;;;;;11.00;7.40;;;;;;;6.49;71.54;98931.12;108920;1251;98888;-76
2023/02/13 11:27:41;;;;;;;36.80;15.10;;;;;;;6.53;71.30;98926.27;108939;1250;94714;-74
2023/02/13 11:30:38;;;;;;;48.60;20.50;;;;;;;6.60;71.29;98913.10;108930;1251;94588;-74
2023/02/13 11:33:27;;;;;;;26.80;12.30;;;;;;;6.60;70.86;98906.13;108643;1250;101247;-74
2023/02/13 11:36:08;;;;;;;25.60;12.20;;;;;;;6.57;70.80;98904.84;108935;1251;100430;-75
2023/02/13 11:38:36;;;;;;;15.40;10.50;;;;;;;6.60;70.74;98900.03;108905;1251;100527;-76
2023/02/13 11:41:05;;;;;;;17.00;10.20;;;;;;;6.68;70.93;98899.75;108884;1250;94214;-76
2023/02/13 11:43:44;;;;;;;18.50;10.60;;;;;;;6.81;70.75;98904.19;108810;1251;95078;-77
2023/02/13 11:46:22;;;;;;;25.00;12.50;;;;;;;6.93;70.58;98902.70;108929;1250;102195;-75
2023/02/13 11:49:24;;;;;;;16.80;9.50;;;;;;;7.01;70.21;98901.92;108595;1251;101027;-76
2023/02/13 11:52:02;;;;;;;20.20;11.70;;;;;;;6.98;69.92;98895.94;108869;1251;99923;-76
2023/02/13 11:54:45;;;;;;;20.40;11.10;;;;;;;6.95;69.69;98900.50;108806;1250;94472;-76
2023/02/13 11:57:29;;;;;;;18.20;10.50;;;;;;;6.93;69.52;98898.17;108814;1251;94519;-73
2023/02/13 11:59:59;;;;;;;18.30;10.80;;;;;;;6.91;69.44;98891.95;108771;1250;102177;-74
2023/02/13 12:02:31;;;;;;;20.10;11.40;;;;;;;6.93;69.46;98891.39;108815;1254;101467;-74
2023/02/13 12:05:25;;;;;;;20.00;11.40;;;;;;;6.93;69.33;98891.27;108863;1250;100091;-74
2023/02/13 12:08:00;;;;;;;20.30;12.00;;;;;;;6.90;69.07;98891.02;108838;1251;94620;-76
2023/02/13 12:10:31;;;;;;;25.30;15.30;;;;;;;6.87;68.90;98891.46;108887;1250;94516;-74
2023/02/13 12:13:14;;;;;;;19.10;11.60;;;;;;;6.85;68.84;98891.11;108980;1251;102022;-74
2023/02/13 12:15:45;;;;;;;21.00;12.10;;;;;;;6.83;68.79;98890.21;108891;1251;101275;-74
2023/02/13 12:18:27;;;;;;;19.10;12.00;;;;;;;6.76;68.79;98886.48;108543;1250;99863;-74
2023/02/13 12:21:01;;;;;;;12.90;7.80;;;;;;;6.72;68.76;98882.86;108857;1251;94191;-74
2023/02/13 12:23:49;;;;;;;12.80;6.50;;;;;;;6.73;68.73;98881.05;108977;1250;94390;-74
2023/02/13 12:26:26;;;;;;;17.20;10.90;;;;;;;6.77;68.79;98877.96;108659;1251;110841;-76